SBRJSBES

Guest
Details From SBRJ - Santos-dumont
To SBES - Sao Pedro Da Aldeia
Flight Number -
Tags Generated
Created
Modified
Stats Distance 59 nm / 109 km
Max Altitude 0 ft / 0 m
Waypoints 2
Social Downloads 1
Likes 0
Share VATSIM

Download

Looking for another format? Having issues loading an existing format? Contact us
Advertisement - Login to hide

Notes

Generated

Route

SBRJ SBES

ID Type Via Altitude Latitude Longitude Leg Dist Tot Dist Heading (true) Name
O SBRJ APT - 0 ft / 0 m -22.91603˚ -43.16328˚ - 0 nm - -
O SBES APT - 0 ft / 0 m -22.82065˚ -42.10073˚ 59 nm 59 nm 85° / 84° -

Altitude Profile

Advertisement - Login to hide

SBRJ

Details ICAO SBRJ (SDU)
Name Santos-Dumont
Region Brazil
Timezone Unknown (UTC+0.0)
Stats Elevation 11 ft / 3 m (AMSL)
Location -22.910460° -43.163133°
Runways 2
Magnetic Variation 22.781° W

METAR

SBRJ 121700Z 17011KT 8000 BKN012 SCT020 BKN040 25/21 Q1016

Decode

TAF

TAF TAF SBRJ 120730Z 1212/1224 28010KT 7000 SCT015 TX26/1216Z TN22/1224Z BECMG 1213/1215 12010KT 5000 RA BR BKN015 BECMG 1216/1219 17010KT 7000 NSW BKN020 BECMG 1221/1223 10005KT BKN012 RMK PGZ

Decode

Departure Runways

ID Width Length Bearing (true) Bearing (mag) Surface Threshold Offset Overrun Length
02L 98 ft / 30 m 4,154 ft / 1,266 m 358.02° 20.80° Asphalt 0 ft / 0 m 80 ft / 24 m
02R 138 ft / 42 m 4,361 ft / 1,329 m 358.01° 20.79° Asphalt 0 ft / 0 m 80 ft / 24 m
20L 138 ft / 42 m 4,361 ft / 1,329 m 178.01° 200.79° Asphalt 0 ft / 0 m 80 ft / 24 m
20R 98 ft / 30 m 4,154 ft / 1,266 m 178.02° 200.80° Asphalt 0 ft / 0 m 95 ft / 29 m

SBES

Details ICAO SBES
Name SAO PEDRO DA ALDEIA
Region Brazil
Timezone America/Sao_Paulo (UTC-2.0)
Stats Elevation 61 ft / 19 m (AMSL)
Location -22.812873° -42.092633°
Runways 1
Magnetic Variation 23.141° W

METAR

SBES 121700Z 15011KT 9999 BKN020 BKN033 OVC080 24/19 Q1016

Decode

TAF

Not found

Destination Runways

ID Width Length Bearing (true) Bearing (mag) Surface Threshold Offset Overrun Length
07 92 ft / 28 m 7,867 ft / 2,398 m 43.80° 66.94° Concrete 0 ft / 0 m 330 ft / 101 m
25 92 ft / 28 m 7,867 ft / 2,398 m 223.80° 246.94° Concrete 0 ft / 0 m 330 ft / 101 m

Popular Alternatives